This is the latest recevied weather packets stored in our database for station/object N2UGS-WX. If no packets are shown the sender has not sent any weather packets the latest 10 day(s).
| Time | Temp. | Humidity | Pressure | Rain* | Wind** | Luminosity | Snow |
|---|---|---|---|---|---|---|---|
| 1777581242 | 7.78° C | 78% | 1012.5 hPa | 0 mm | - | - | - |
| 1777580401 | 7.22° C | 79% | 1012.5 hPa | 0 mm | - | - | - |
| 1777579742 | 7.22° C | 80% | 1012.2 hPa | 0 mm | - | - | - |
| 1777578901 | 7.22° C | 80% | 1012.5 hPa | 0 mm | - | - | - |
| 1777577942 | 7.78° C | 77% | 1012.5 hPa | 0 mm | - | - | - |
| 1777577102 | 8.33° C | 76% | 1012.2 hPa | 0 mm | - | - | - |
| 1777576143 | 8.89° C | 73% | 1012.2 hPa | 0 mm | - | - | - |
| 1777575242 | 9.44° C | 71% | 1012.2 hPa | 0 mm | - | - | - |
| 1777574402 | 10° C | 67% | 1011.9 hPa | 0 mm | - | - | - |
| 1777573742 | 11.11° C | 55% | 1011.9 hPa | 0 mm | - | - | - |
| 1777572902 | 11.11° C | 56% | 1011.9 hPa | 0 mm | - | - | - |
| 1777572302 | 11.67° C | 61% | 1011.9 hPa | 0 mm | - | - | - |
| 1777571642 | 10° C | 62% | 1011.9 hPa | 0 mm | - | - | - |
| 1777570802 | 10.56° C | 61% | 1011.9 hPa | 0 mm | - | - | - |
| 1777570142 | 10.56° C | 62% | 1011.9 hPa | 0 mm | - | - | - |
| 1777569242 | 10.56° C | 65% | 1011.9 hPa | 0 mm | - | - | - |
| 1777568403 | 10° C | 64% | 1011.9 hPa | 0 mm | - | - | - |
| 1777567801 | 10° C | 65% | 1012.2 hPa | 0 mm | - | - | - |
| 1777566842 | 10° C | 65% | 1012.2 hPa | 0 mm | - | - | - |
| 1777566002 | 9.44° C | 68% | 1012.2 hPa | 0 mm | - | - | - |
| 1777565102 | 8.89° C | 72% | 1011.9 hPa | 0 mm | - | - | - |
| 1777564142 | 9.44° C | 69% | 1011.9 hPa | 0 mm | - | - | - |
| 1777563302 | 9.44° C | 71% | 1011.9 hPa | 0 mm | - | - | - |
| 1777562102 | 8.89° C | 71% | 1011.9 hPa | 0 mm | - | - | - |
| 1777561203 | 8.33° C | 72% | 1011.5 hPa | 0 mm | - | - | - |
* Rain latest hour (hover to see other rain measurements)
** Current wind speed in m/s (hover to see current wind gust speed)